createdAt,value
2023-03-04T00:01:16.206Z,68.30
2023-03-04T00:03:42.779Z,68.67
2023-03-04T00:06:09.362Z,68.37
2023-03-04T00:08:35.887Z,68.41
2023-03-04T00:11:02.382Z,68.49
2023-03-04T00:13:28.935Z,68.82
2023-03-04T00:15:55.406Z,68.92
2023-03-04T00:18:21.936Z,69.14
2023-03-04T00:20:49.745Z,69.20
2023-03-04T00:23:16.812Z,69.50
2023-03-04T00:25:43.697Z,69.37
2023-03-04T00:28:10.458Z,69.33
2023-03-04T00:30:36.944Z,69.51
2023-03-04T00:33:03.489Z,69.40
2023-03-04T00:35:30.112Z,69.75
2023-03-04T00:37:56.711Z,69.49
2023-03-04T00:40:23.245Z,69.51
2023-03-04T00:42:49.800Z,69.52
2023-03-04T00:45:16.590Z,69.46
2023-03-04T00:47:43.156Z,69.49
2023-03-04T00:50:10.292Z,69.61
2023-03-04T00:52:36.825Z,70.13
2023-03-04T00:55:03.655Z,70.19
2023-03-04T00:57:30.158Z,70.33
2023-03-04T00:59:56.639Z,70.51
2023-03-04T01:02:23.207Z,70.00
2023-03-04T01:04:49.782Z,69.84
2023-03-04T01:07:16.311Z,70.04
2023-03-04T01:09:42.856Z,69.30
2023-03-04T01:12:09.484Z,69.29
2023-03-04T01:14:36.001Z,69.11
2023-03-04T01:17:02.603Z,69.34
2023-03-04T01:19:29.176Z,69.38
2023-03-04T01:21:55.701Z,69.48
2023-03-04T01:24:22.202Z,69.79
2023-03-04T01:26:48.722Z,69.96
2023-03-04T01:29:15.233Z,70.24
2023-03-04T01:31:41.726Z,70.28
2023-03-04T01:34:09.958Z,69.86
2023-03-04T01:36:36.683Z,69.54
2023-03-04T01:39:04.192Z,69.13
2023-03-04T01:41:30.740Z,68.87
2023-03-04T01:44:00.830Z,69.23
2023-03-04T01:46:27.421Z,69.42
2023-03-04T01:48:54.110Z,69.25
2023-03-04T01:51:21.211Z,69.38
2023-03-04T01:53:54.874Z,69.55
2023-03-04T01:56:26.729Z,69.83
2023-03-04T01:59:13.112Z,69.93
2023-03-04T02:01:41.144Z,69.96
2023-03-04T02:04:08.226Z,69.50
2023-03-04T02:06:36.654Z,69.48
2023-03-04T02:09:03.935Z,69.38
2023-03-04T02:11:30.890Z,69.45
2023-03-04T02:13:57.536Z,69.33
2023-03-04T02:16:24.207Z,69.55
2023-03-04T02:18:50.872Z,69.31
2023-03-04T02:21:29.107Z,69.29
2023-03-04T02:24:28.390Z,68.90
2023-03-04T02:26:54.957Z,69.15
2023-03-04T02:29:21.573Z,68.62
2023-03-04T02:31:52.711Z,68.41
2023-03-04T02:34:22.206Z,68.57
2023-03-04T02:36:50.590Z,68.61
2023-03-04T02:39:20.152Z,69.21
2023-03-04T02:41:52.127Z,69.21
2023-03-04T02:44:24.626Z,68.93
2023-03-04T02:46:51.676Z,69.36
2023-03-04T02:49:18.797Z,69.50
2023-03-04T02:51:45.820Z,69.28
2023-03-04T02:54:23.959Z,69.49
2023-03-04T02:56:52.878Z,69.75
2023-03-04T02:59:21.196Z,69.18
2023-03-04T03:01:48.103Z,68.88
2023-03-04T03:04:15.104Z,68.71
2023-03-04T03:06:41.648Z,68.40
2023-03-04T03:09:08.886Z,68.48
2023-03-04T03:11:35.626Z,68.66
2023-03-04T03:14:02.287Z,68.53
2023-03-04T03:16:29.036Z,68.61
2023-03-04T03:18:55.668Z,68.70
2023-03-04T03:21:22.335Z,68.64
2023-03-04T03:23:48.936Z,68.65
2023-03-04T03:26:16.161Z,68.99
2023-03-04T03:28:42.687Z,68.91
2023-03-04T03:31:09.455Z,68.67
2023-03-04T03:33:36.197Z,68.64
2023-03-04T03:36:02.967Z,68.33
2023-03-04T03:38:29.658Z,68.25
2023-03-04T03:40:56.230Z,67.64
2023-03-04T03:43:23.026Z,67.80
2023-03-04T03:45:49.605Z,67.67
2023-03-04T03:48:16.165Z,67.15
2023-03-04T03:50:42.663Z,67.21
2023-03-04T03:53:09.171Z,68.10
2023-03-04T03:55:35.697Z,68.09
2023-03-04T03:58:02.270Z,68.02
2023-03-04T04:00:28.835Z,68.60
2023-03-04T04:02:56.447Z,68.53
2023-03-04T04:05:23.065Z,68.66
2023-03-04T04:07:49.683Z,68.99
2023-03-04T04:10:16.729Z,69.07
2023-03-04T04:12:43.287Z,69.45
2023-03-04T04:15:12.241Z,69.53
2023-03-04T04:17:38.733Z,70.29
2023-03-04T04:20:07.965Z,71.18
2023-03-04T04:22:34.483Z,71.53
2023-03-04T04:25:00.961Z,72.17
2023-03-04T04:27:27.466Z,71.86
2023-03-04T04:29:54.102Z,72.53
2023-03-04T04:32:20.697Z,72.85
2023-03-04T04:34:47.260Z,72.97
2023-03-04T04:37:13.793Z,73.36
2023-03-04T04:39:40.398Z,74.22
2023-03-04T04:42:06.937Z,75.21
2023-03-04T04:44:33.462Z,76.12
2023-03-04T04:47:00.017Z,76.59
2023-03-04T04:49:26.515Z,77.37
2023-03-04T04:51:53.048Z,77.70
2023-03-04T04:54:19.565Z,77.51
2023-03-04T04:56:46.042Z,77.50
2023-03-04T04:59:12.544Z,76.57
2023-03-04T05:01:39.280Z,75.90
2023-03-04T05:04:06.047Z,75.07
2023-03-04T05:06:32.630Z,74.42
2023-03-04T05:08:59.158Z,73.39
2023-03-04T05:11:25.721Z,72.52
2023-03-04T05:13:52.285Z,72.30
2023-03-04T05:16:19.421Z,71.84
2023-03-04T05:18:46.418Z,71.69
2023-03-04T05:21:13.269Z,71.64
2023-03-04T05:23:41.909Z,71.45
2023-03-04T05:26:09.984Z,71.14
2023-03-04T05:28:36.584Z,71.24
2023-03-04T05:31:04.079Z,71.44
2023-03-04T05:33:31.018Z,71.48
2023-03-04T05:35:58.191Z,71.94
2023-03-04T05:38:25.684Z,72.85
2023-03-04T05:41:02.003Z,72.75
2023-03-04T05:43:28.760Z,73.11
2023-03-04T05:45:55.591Z,73.59
2023-03-04T05:48:22.295Z,74.28
2023-03-04T05:50:57.775Z,74.52
2023-03-04T05:53:25.079Z,74.58
2023-03-04T05:55:52.004Z,74.65
2023-03-04T05:58:19.193Z,74.44
2023-03-04T06:00:46.109Z,74.74
2023-03-04T06:03:20.559Z,74.74
2023-03-04T06:05:47.575Z,75.33
2023-03-04T06:08:14.827Z,75.49
2023-03-04T06:10:42.272Z,75.01
2023-03-04T06:13:09.379Z,75.04
2023-03-04T06:15:36.131Z,74.18
2023-03-04T06:18:03.074Z,74.24
2023-03-04T06:20:29.908Z,74.35
2023-03-04T06:22:58.488Z,73.96
2023-03-04T06:25:25.546Z,73.86
2023-03-04T06:27:53.050Z,73.89
2023-03-04T06:30:21.706Z,74.05
2023-03-04T06:32:48.278Z,75.16
2023-03-04T06:35:15.752Z,75.99
2023-03-04T06:37:42.830Z,76.44
2023-03-04T06:40:10.540Z,76.54
2023-03-04T06:42:37.423Z,77.45
2023-03-04T06:45:04.772Z,78.59
2023-03-04T06:47:31.320Z,78.87
2023-03-04T06:49:57.868Z,79.11
2023-03-04T06:52:24.917Z,79.15
2023-03-04T06:54:51.570Z,78.92
2023-03-04T06:57:18.239Z,79.87
2023-03-04T06:59:44.793Z,80.20
2023-03-04T07:02:14.227Z,80.53
2023-03-04T07:04:40.803Z,80.34
2023-03-04T07:07:07.355Z,80.52
2023-03-04T07:09:33.888Z,80.07
2023-03-04T07:12:00.528Z,80.65
2023-03-04T07:14:27.908Z,80.29
2023-03-04T07:16:54.657Z,80.17
2023-03-04T07:19:21.530Z,80.16
2023-03-04T07:21:48.100Z,80.08
2023-03-04T07:24:14.681Z,80.22
2023-03-04T07:26:41.292Z,79.89
2023-03-04T07:29:07.835Z,79.94
2023-03-04T07:31:35.280Z,79.26
2023-03-04T07:34:07.063Z,78.86
2023-03-04T07:36:35.415Z,77.51
2023-03-04T07:39:02.154Z,77.00
2023-03-04T07:41:29.226Z,76.24
2023-03-04T07:43:58.891Z,75.33
2023-03-04T07:46:25.448Z,74.96
2023-03-04T07:48:51.995Z,76.70
2023-03-04T07:51:20.404Z,77.89
2023-03-04T07:53:48.931Z,77.82
2023-03-04T07:56:16.623Z,78.10
2023-03-04T07:58:43.193Z,77.60
2023-03-04T08:01:24.011Z,76.51
2023-03-04T08:03:50.596Z,76.11
2023-03-04T08:06:19.111Z,75.17
2023-03-04T08:08:46.741Z,74.48
2023-03-04T08:11:15.695Z,73.70
2023-03-04T08:13:42.492Z,73.02
2023-03-04T08:16:12.407Z,72.88
2023-03-04T08:18:39.749Z,73.19
2023-03-04T08:21:09.845Z,74.79
2023-03-04T08:23:36.494Z,75.66
2023-03-04T08:26:08.275Z,76.98
2023-03-04T08:28:35.188Z,77.28
2023-03-04T08:31:02.073Z,77.31
2023-03-04T08:33:28.621Z,76.91
2023-03-04T08:35:55.177Z,75.49
2023-03-04T08:38:21.787Z,75.52
2023-03-04T08:40:55.780Z,73.87
2023-03-04T08:43:23.436Z,73.83
2023-03-04T08:45:50.077Z,73.46
2023-03-04T08:48:18.666Z,71.61
2023-03-04T08:50:46.096Z,69.34
2023-03-04T08:53:13.428Z,63.29
2023-03-04T08:55:40.888Z,63.02
2023-03-04T08:58:07.984Z,64.13
2023-03-04T09:00:37.048Z,67.50
2023-03-04T09:03:04.526Z,69.68
2023-03-04T09:05:32.450Z,72.72
2023-03-04T09:07:59.115Z,73.31
2023-03-04T09:10:25.770Z,73.42
2023-03-04T09:12:52.319Z,74.24
2023-03-04T09:15:19.092Z,74.91
2023-03-04T09:17:45.656Z,71.14
2023-03-04T09:20:13.372Z,68.94
2023-03-04T09:22:41.291Z,67.55
2023-03-04T09:25:12.739Z,67.70
2023-03-04T09:27:39.905Z,67.84
2023-03-04T09:30:07.495Z,68.38
2023-03-04T09:32:34.116Z,70.75
2023-03-04T09:35:00.662Z,73.60
2023-03-04T09:37:27.219Z,75.09
2023-03-04T09:39:53.898Z,76.34
2023-03-04T09:42:43.822Z,77.83
2023-03-04T09:45:15.475Z,78.58
2023-03-04T09:47:42.615Z,79.03
2023-03-04T09:50:10.844Z,79.27
2023-03-04T09:53:19.937Z,77.88
2023-03-04T09:55:50.497Z,77.19
2023-03-04T09:58:43.287Z,77.81
2023-03-04T10:01:21.111Z,77.45
2023-03-04T10:03:53.387Z,74.08
2023-03-04T10:06:21.708Z,73.52
2023-03-04T10:08:51.279Z,70.66
2023-03-04T10:11:21.662Z,70.08
2023-03-04T10:14:22.255Z,71.32
2023-03-04T10:16:54.498Z,71.06
2023-03-04T10:19:49.238Z,69.67
2023-03-04T10:22:49.875Z,65.63
2023-03-04T10:25:28.329Z,65.36
2023-03-04T10:28:17.577Z,65.62
2023-03-04T10:31:13.479Z,66.39
2023-03-04T10:33:40.669Z,66.48
2023-03-04T10:36:16.321Z,67.16
2023-03-04T10:38:43.220Z,68.49
2023-03-04T10:41:22.535Z,67.30
2023-03-04T10:44:16.434Z,69.89
2023-03-04T10:46:45.224Z,71.17
2023-03-04T10:49:14.831Z,74.08
2023-03-04T10:51:46.667Z,77.39
2023-03-04T10:54:25.454Z,77.94
2023-03-04T10:57:17.471Z,77.90
2023-03-04T10:59:59.913Z,77.41
2023-03-04T11:02:30.944Z,74.67
2023-03-04T11:05:09.788Z,74.60
2023-03-04T11:07:55.059Z,77.07
2023-03-04T11:10:42.574Z,79.09
2023-03-04T11:13:12.164Z,80.54
2023-03-04T11:16:05.809Z,80.16
2023-03-04T11:18:42.640Z,79.98
2023-03-04T11:21:15.680Z,79.34
2023-03-04T11:24:09.512Z,74.19
2023-03-04T11:26:51.686Z,70.89
2023-03-04T11:29:25.751Z,69.46
2023-03-04T11:31:56.866Z,66.85
2023-03-04T11:34:50.904Z,67.29
2023-03-04T11:37:36.734Z,67.33
2023-03-04T11:40:23.620Z,68.72
2023-03-04T11:42:54.922Z,71.15
2023-03-04T11:45:32.868Z,72.15
2023-03-04T11:48:03.256Z,72.25
2023-03-04T11:50:48.916Z,75.30
2023-03-04T11:53:18.913Z,76.20
2023-03-04T11:55:56.487Z,74.64
2023-03-04T11:58:45.310Z,71.84
2023-03-04T12:01:24.418Z,68.40
2023-03-04T12:04:35.703Z,68.14
2023-03-04T12:07:20.712Z,64.60
2023-03-04T12:10:06.007Z,64.32
2023-03-04T12:12:57.025Z,62.92
2023-03-04T12:15:56.090Z,62.85
2023-03-04T12:18:25.537Z,59.23
2023-03-04T12:21:13.483Z,59.71
2023-03-04T12:24:12.659Z,62.69
2023-03-04T12:27:01.676Z,63.36
2023-03-04T12:30:06.995Z,65.45
2023-03-04T12:32:54.593Z,66.30
2023-03-04T12:35:33.214Z,67.32
2023-03-04T12:38:05.560Z,65.70
2023-03-04T12:40:53.367Z,67.99
2023-03-04T12:43:58.397Z,71.36
2023-03-04T12:47:00.013Z,75.60
2023-03-04T12:49:35.462Z,79.56
2023-03-04T12:52:15.539Z,80.19
2023-03-04T12:54:46.905Z,81.43
2023-03-04T12:57:40.521Z,76.96
2023-03-04T13:00:12.994Z,77.80
2023-03-04T13:02:58.950Z,73.53
2023-03-04T13:05:57.347Z,72.62
2023-03-04T13:08:52.298Z,71.91
2023-03-04T13:11:33.982Z,68.28
2023-03-04T13:14:03.429Z,70.47
2023-03-04T13:16:46.074Z,71.37
2023-03-04T13:19:51.256Z,70.96
2023-03-04T13:22:37.980Z,72.91
2023-03-04T13:25:26.364Z,74.90
2023-03-04T13:28:11.284Z,75.51
2023-03-04T13:30:41.422Z,76.52
2023-03-04T13:33:11.069Z,76.29
2023-03-04T13:35:50.033Z,76.36
2023-03-04T13:38:26.742Z,72.04
2023-03-04T13:41:14.668Z,70.16
2023-03-04T13:43:53.472Z,66.17
2023-03-04T13:46:20.169Z,66.05
2023-03-04T13:48:49.471Z,64.82
2023-03-04T13:51:29.765Z,64.27
2023-03-04T13:53:59.631Z,63.80
2023-03-04T13:56:57.697Z,64.15
2023-03-04T13:59:32.753Z,64.33
2023-03-04T14:02:01.005Z,65.76
2023-03-04T14:04:32.500Z,69.63
2023-03-04T14:07:00.639Z,73.16
2023-03-04T14:09:30.093Z,73.45
2023-03-04T14:11:59.700Z,74.46
2023-03-04T14:14:32.724Z,74.23
2023-03-04T14:17:02.313Z,72.61
2023-03-04T14:19:38.398Z,72.89
2023-03-04T14:22:29.427Z,68.87
2023-03-04T14:24:57.617Z,64.25
2023-03-04T14:27:24.143Z,62.00
2023-03-04T14:29:58.184Z,60.64
2023-03-04T14:32:26.076Z,59.88
2023-03-04T14:34:57.627Z,57.05
2023-03-04T14:37:27.080Z,57.50
2023-03-04T14:39:57.160Z,59.27
2023-03-04T14:42:25.954Z,60.68
2023-03-04T14:44:55.965Z,62.31
2023-03-04T14:47:36.196Z,63.25
2023-03-04T14:50:05.991Z,63.79
2023-03-04T14:52:32.581Z,63.92
2023-03-04T14:55:14.355Z,64.07
2023-03-04T14:57:42.830Z,61.63
2023-03-04T15:00:30.991Z,59.37
2023-03-04T15:03:03.342Z,58.52
2023-03-04T15:05:33.721Z,60.22
2023-03-04T15:08:03.185Z,60.86
2023-03-04T15:10:35.210Z,62.25
2023-03-04T15:13:04.148Z,61.71
2023-03-04T15:15:35.983Z,60.93
2023-03-04T15:18:13.090Z,59.83
2023-03-04T15:20:39.674Z,61.01
2023-03-04T15:23:14.074Z,61.85
2023-03-04T15:25:40.632Z,63.01
2023-03-04T15:28:15.813Z,62.66
2023-03-04T15:30:43.394Z,62.47
2023-03-04T15:33:13.456Z,61.78
2023-03-04T15:35:40.809Z,61.40
2023-03-04T15:38:08.209Z,61.63
2023-03-04T15:40:41.835Z,62.28
2023-03-04T15:43:11.095Z,63.01
2023-03-04T15:45:39.221Z,63.78
2023-03-04T15:48:09.721Z,63.81
2023-03-04T15:50:38.387Z,65.24
2023-03-04T15:53:08.532Z,65.75
2023-03-04T15:55:35.338Z,68.09
2023-03-04T15:58:03.606Z,69.01
2023-03-04T16:00:32.110Z,68.71
2023-03-04T16:02:58.560Z,69.32
2023-03-04T16:05:25.051Z,69.68
2023-03-04T16:07:52.181Z,69.07
2023-03-04T16:10:32.084Z,68.73
2023-03-04T16:12:58.874Z,68.18
2023-03-04T16:15:28.226Z,68.35
2023-03-04T16:17:55.385Z,68.07
2023-03-04T16:20:28.613Z,68.05
2023-03-04T16:22:57.491Z,68.08
2023-03-04T16:25:24.388Z,68.03
2023-03-04T16:27:52.457Z,68.28
2023-03-04T16:30:24.886Z,67.61
2023-03-04T16:32:51.550Z,66.97
2023-03-04T16:35:19.170Z,67.53
2023-03-04T16:37:46.043Z,67.67
2023-03-04T16:40:18.204Z,67.13
2023-03-04T16:42:44.723Z,66.93
2023-03-04T16:45:27.732Z,66.77
2023-03-04T16:47:54.327Z,67.77
2023-03-04T16:50:27.295Z,69.01
2023-03-04T16:52:55.363Z,69.21
2023-03-04T16:55:27.940Z,69.84
2023-03-04T16:57:56.051Z,70.46
2023-03-04T17:00:24.036Z,71.37
2023-03-04T17:03:00.840Z,72.27
2023-03-04T17:05:30.608Z,74.57
2023-03-04T17:07:57.363Z,77.50
2023-03-04T17:10:24.508Z,79.31
2023-03-04T17:12:52.031Z,80.64
2023-03-04T17:15:19.037Z,81.47
2023-03-04T17:17:46.271Z,82.29
2023-03-04T17:20:18.064Z,83.08
2023-03-04T17:22:45.463Z,83.82
2023-03-04T17:25:13.412Z,84.25
2023-03-04T17:27:40.180Z,84.52
2023-03-04T17:30:09.854Z,84.37
2023-03-04T17:32:39.489Z,85.12
2023-03-04T17:35:08.076Z,85.36
2023-03-04T17:37:35.542Z,85.40
2023-03-04T17:40:04.511Z,85.34
2023-03-04T17:42:31.148Z,85.05
2023-03-04T17:44:57.690Z,84.33
2023-03-04T17:47:24.517Z,84.16
2023-03-04T17:49:51.091Z,84.03
2023-03-04T17:52:17.684Z,83.94
2023-03-04T17:54:46.199Z,84.59
2023-03-04T17:57:13.312Z,84.62
2023-03-04T17:59:40.430Z,84.04
2023-03-04T18:02:07.250Z,84.56
2023-03-04T18:04:34.429Z,84.17
2023-03-04T18:07:00.986Z,84.69
2023-03-04T18:09:27.537Z,84.71
2023-03-04T18:11:54.129Z,85.20
2023-03-04T18:14:20.717Z,84.76
2023-03-04T18:16:47.337Z,85.65
2023-03-04T18:19:13.843Z,85.63
2023-03-04T18:21:40.322Z,86.07
2023-03-04T18:24:07.815Z,87.21
2023-03-04T18:26:34.512Z,87.64
2023-03-04T18:29:01.084Z,87.19
2023-03-04T18:31:31.558Z,87.72
2023-03-04T18:34:00.615Z,87.56
2023-03-04T18:36:27.311Z,87.66
2023-03-04T18:38:54.786Z,87.63
2023-03-04T18:41:21.445Z,87.45
2023-03-04T18:43:47.956Z,87.34
2023-03-04T18:46:17.578Z,87.67
2023-03-04T18:48:50.693Z,88.35
2023-03-04T18:51:17.210Z,88.00
2023-03-04T18:53:43.808Z,88.13
2023-03-04T18:56:13.898Z,87.84
2023-03-04T18:58:41.308Z,87.99
2023-03-04T19:01:09.753Z,88.67
2023-03-04T19:03:37.773Z,88.01
2023-03-04T19:06:05.623Z,88.16
2023-03-04T19:08:32.582Z,88.44
2023-03-04T19:10:59.105Z,88.29
2023-03-04T19:13:25.859Z,87.90
2023-03-04T19:15:53.366Z,87.74
2023-03-04T19:18:20.405Z,87.37
2023-03-04T19:20:47.177Z,88.25
2023-03-04T19:23:15.493Z,87.94
2023-03-04T19:25:43.624Z,88.25
2023-03-04T19:28:10.708Z,88.15
2023-03-04T19:30:38.647Z,88.10
2023-03-04T19:33:05.718Z,87.92
2023-03-04T19:35:34.892Z,87.80
2023-03-04T19:38:01.500Z,86.95
2023-03-04T19:40:28.604Z,86.90
2023-03-04T19:42:56.772Z,86.08
2023-03-04T19:45:23.791Z,85.15
2023-03-04T19:47:50.427Z,84.49
2023-03-04T19:50:17.312Z,83.25
2023-03-04T19:52:44.158Z,82.47
2023-03-04T19:55:12.928Z,82.08
2023-03-04T19:57:42.202Z,81.32
2023-03-04T20:00:10.716Z,80.20
2023-03-04T20:02:37.326Z,79.96
2023-03-04T20:05:04.946Z,80.08
2023-03-04T20:07:31.711Z,80.46
2023-03-04T20:09:58.379Z,79.60
2023-03-04T20:12:25.211Z,79.71
2023-03-04T20:14:51.753Z,79.89
2023-03-04T20:17:18.584Z,78.49
2023-03-04T20:19:45.366Z,78.94
2023-03-04T20:22:13.378Z,78.19
2023-03-04T20:24:39.954Z,77.43
2023-03-04T20:27:06.508Z,76.24
2023-03-04T20:29:33.107Z,76.05
2023-03-04T20:31:59.782Z,75.79
2023-03-04T20:34:27.130Z,76.30
2023-03-04T20:36:53.757Z,76.22
2023-03-04T20:39:29.324Z,76.71
2023-03-04T20:41:59.739Z,77.17
2023-03-04T20:44:27.010Z,77.12
2023-03-04T20:46:53.624Z,77.76
2023-03-04T20:49:25.381Z,77.36
2023-03-04T20:51:53.349Z,77.38
2023-03-04T20:54:20.347Z,77.49
2023-03-04T20:56:47.252Z,77.25
2023-03-04T20:59:13.846Z,77.04
2023-03-04T21:01:42.152Z,76.11
2023-03-04T21:04:09.311Z,76.71
2023-03-04T21:06:38.182Z,76.84
2023-03-04T21:09:10.255Z,77.58
2023-03-04T21:11:40.407Z,77.92
2023-03-04T21:14:19.524Z,78.18
2023-03-04T21:16:46.767Z,78.98
2023-03-04T21:19:19.244Z,79.93
2023-03-04T21:21:47.138Z,79.72
2023-03-04T21:24:15.926Z,80.14
2023-03-04T21:26:47.584Z,80.36
2023-03-04T21:29:16.067Z,80.74
2023-03-04T21:31:45.248Z,81.09
2023-03-04T21:34:19.830Z,81.70
2023-03-04T21:36:47.694Z,81.44
2023-03-04T21:39:20.192Z,82.17
2023-03-04T21:41:47.335Z,82.21
2023-03-04T21:44:22.884Z,82.07
2023-03-04T21:46:56.738Z,81.93
2023-03-04T21:49:23.417Z,82.29
2023-03-04T21:51:50.007Z,83.34
2023-03-04T21:54:16.644Z,82.79
2023-03-04T21:56:43.410Z,83.08
2023-03-04T21:59:12.799Z,83.02
2023-03-04T22:01:39.518Z,83.48
2023-03-04T22:04:06.336Z,83.50
2023-03-04T22:06:33.735Z,82.29
2023-03-04T22:09:01.829Z,82.42
2023-03-04T22:11:30.053Z,82.13
2023-03-04T22:13:58.968Z,81.37
2023-03-04T22:16:26.059Z,81.65
2023-03-04T22:18:52.654Z,82.25
2023-03-04T22:21:20.613Z,81.96
2023-03-04T22:23:47.386Z,82.29
2023-03-04T22:26:16.512Z,82.63
2023-03-04T22:28:43.485Z,83.84
2023-03-04T22:31:26.287Z,83.71
2023-03-04T22:33:52.883Z,83.37
2023-03-04T22:36:19.446Z,83.81
2023-03-04T22:38:46.018Z,83.14
2023-03-04T22:41:14.547Z,83.54
2023-03-04T22:43:41.342Z,83.69
2023-03-04T22:46:15.732Z,83.60
2023-03-04T22:48:42.336Z,83.93
2023-03-04T22:51:09.851Z,83.74
2023-03-04T22:53:37.948Z,83.33
2023-03-04T22:56:06.114Z,83.29
2023-03-04T22:58:33.492Z,82.99
2023-03-04T23:01:00.343Z,82.46
2023-03-04T23:03:27.216Z,82.91
2023-03-04T23:06:07.520Z,82.41
2023-03-04T23:08:36.394Z,82.36
2023-03-04T23:11:10.632Z,82.34
2023-03-04T23:13:37.906Z,83.04
2023-03-04T23:16:08.854Z,82.68
2023-03-04T23:18:36.306Z,83.07
2023-03-04T23:21:10.322Z,82.67
2023-03-04T23:23:37.357Z,83.37
2023-03-04T23:26:04.586Z,83.84
2023-03-04T23:28:31.881Z,83.78
2023-03-04T23:30:58.460Z,83.67
2023-03-04T23:33:25.087Z,84.43
2023-03-04T23:35:51.820Z,83.46
2023-03-04T23:38:18.476Z,84.09
2023-03-04T23:40:45.062Z,83.96
2023-03-04T23:43:11.651Z,85.12
2023-03-04T23:45:38.274Z,84.10
2023-03-04T23:48:05.008Z,84.51
2023-03-04T23:50:32.328Z,84.24
2023-03-04T23:52:58.851Z,84.22
2023-03-04T23:55:25.381Z,84.96
2023-03-04T23:57:51.955Z,85.27
